Temp: 13.8°C   Baro: 1008.4mb
  Wind: 8.1mph   Dir: WSW (256°)
  Rain: 6.4mm (0.0mm/hr)
  Sun: 360W/m2  Humidity: 91%

Historic data

Bath Spa Weather Station Historical Data
Daily Summary for April 17, 2024 Units:  English    Metric   Both
Daily Weekly Monthly Yearly Custom
  High: Low: Average:
Temperature: 51.1 °F 37.9 °F 44.6 °F
Dew Point: 39.9 °F 33.3 °F 36.8 °F
Humidity: 87.8% 58.2% 74%
Wind Speed: 10.5mph 0mph 3.9mph
Wind Gust: 19mph - -
Wind- - WNW
Pressure: 30.14 in 30.03 in -
Precipitation: 0.00 in    
Historical Graphs
 
 
Tabular Data for April 17, 2024
Time Temperature Dew Point Pressure Wind Wind Speed Wind Gust Humidity Rainfall Rate (Hourly) solar
00:09 42.2 °F 35.9 °F 30.11 in NNW 3.3 mph 5 mph 78% 0.00 in 0 W/m2
00:14 42.1 °F 35.8 °F 30.11 in NNW 2.7 mph 5 mph 78% 0.00 in 0 W/m2
00:19 42.1 °F 35.9 °F 30.11 in NW 2.9 mph 5 mph 78.6% 0.00 in 0 W/m2
00:24 42 °F 35.8 °F 30.11 in NW 2.3 mph 3 mph 78.8% 0.00 in 0 W/m2
00:29 41.9 °F 35.8 °F 30.11 in NW 2.6 mph 4 mph 79% 0.00 in 0 W/m2
00:34 41.7 °F 35.8 °F 30.11 in NW 2 mph 4 mph 79% 0.00 in 0 W/m2
00:39 41.7 °F 35.8 °F 30.11 in NW 1.5 mph 4 mph 79% 0.00 in 0 W/m2
00:44 41.5 °F 35.4 °F 30.11 in NW 1.3 mph 3 mph 78.6% 0.00 in 0 W/m2
00:49 41.4 °F 35.1 °F 30.11 in NW 1.5 mph 3 mph 78% 0.00 in 0 W/m2
00:54 41.4 °F 35.3 °F 30.11 in NW 1.6 mph 3 mph 78.8% 0.00 in 0 W/m2
00:59 41.3 °F 35.3 °F 30.11 in NW 2 mph 5 mph 79% 0.00 in 0 W/m2
01:03 41.3 °F 35.3 °F 30.11 in NW 2.7 mph 5 mph 79% 0.00 in 0 W/m2
01:09 41.2 °F 35.2 °F 30.11 in NW 2.5 mph 4 mph 79% 0.00 in 0 W/m2
01:14 41.2 °F 35.2 °F 30.11 in NNW 2.1 mph 5 mph 79% 0.00 in 0 W/m2
01:19 40.9 °F 35 °F 30.11 in NW 2.5 mph 5 mph 79% 0.00 in 0 W/m2
01:24 40.8 °F 34.9 °F 30.11 in NW 2.5 mph 5 mph 79% 0.00 in 0 W/m2
01:29 40.7 °F 34.8 °F 30.11 in NW 2.6 mph 4 mph 79% 0.00 in 0 W/m2
01:34 40.6 °F 34.7 °F 30.10 in NW 4 mph 6 mph 79% 0.00 in 0 W/m2
01:39 40.5 °F 34.6 °F 30.10 in NW 2.5 mph 5 mph 79% 0.00 in 0 W/m2
01:44 40.5 °F 34.5 °F 30.10 in NW 1.3 mph 3 mph 79% 0.00 in 0 W/m2
01:49 40.5 °F 34.5 °F 30.10 in NW 0.4 mph 3 mph 79% 0.00 in 0 W/m2
01:54 40.3 °F 34.3 °F 30.10 in NW 0.6 mph 2 mph 79% 0.00 in 0 W/m2
01:59 40.1 °F 34.2 °F 30.10 in NW 1.1 mph 2 mph 79.2% 0.00 in 0 W/m2
02:04 39.8 °F 34.2 °F 30.09 in NW 0.4 mph 2 mph 80% 0.00 in 0 W/m2
02:09 39.7 °F 34.1 °F 30.09 in NW 0.2 mph 1 mph 80% 0.00 in 0 W/m2
02:14 39.5 °F 33.9 °F 30.10 in NW 0.4 mph 2 mph 80% 0.00 in 0 W/m2
02:19 39.1 °F 33.6 °F 30.10 in NW 0.9 mph 2 mph 80.4% 0.00 in 0 W/m2
02:24 38.8 °F 33.4 °F 30.09 in NW 0.9 mph 3 mph 81% 0.00 in 0 W/m2
02:29 38.8 °F 33.4 °F 30.09 in NW 0.9 mph 3 mph 81% 0.00 in 0 W/m2
02:34 38.7 °F 33.5 °F 30.09 in NW 1.1 mph 2 mph 81.6% 0.00 in 0 W/m2
02:39 38.7 °F 33.7 °F 30.09 in NW 1.1 mph 4 mph 82% 0.00 in 0 W/m2
02:44 38.7 °F 33.6 °F 30.09 in NW 0.9 mph 3 mph 82% 0.00 in 0 W/m2
02:49 38.7 °F 33.9 °F 30.09 in NW 0.4 mph 2 mph 82.8% 0.00 in 0 W/m2
02:54 38.7 °F 34 °F 30.09 in Calm     83% 0.00 in 0 W/m2
02:59 38.7 °F 34 °F 30.09 in Calm     83% 0.00 in 0 W/m2
03:04 38.3 °F 33.6 °F 30.09 in NW 0.8 mph 3 mph 83% 0.00 in 0 W/m2
03:09 38.1 °F 33.4 °F 30.09 in NW 1.7 mph 3 mph 83% 0.00 in 0 W/m2
03:14 37.9 °F 33.3 °F 30.09 in Calm   2 mph 83% 0.00 in 0 W/m2
03:19 37.9 °F 33.5 °F 30.09 in NW 2.4 mph 4 mph 83.6% 0.00 in 0 W/m2
03:24 37.9 °F 33.6 °F 30.09 in NW 2 mph 4 mph 84% 0.00 in 0 W/m2
03:29 38 °F 33.7 °F 30.09 in NW 1.3 mph 3 mph 84% 0.00 in 0 W/m2
03:34 38.1 °F 33.8 °F 30.09 in NW 1.1 mph 3 mph 84% 0.00 in 0 W/m2
03:39 38.5 °F 34.2 °F 30.09 in Calm   3 mph 84% 0.00 in 0 W/m2
03:44 38.7 °F 34.2 °F 30.09 in NW 0.8 mph 3 mph 84% 0.00 in 0 W/m2
03:49 38.7 °F 34.2 °F 30.09 in NW 2.5 mph 4 mph 84% 0.00 in 0 W/m2
03:54 38.9 °F 34.4 °F 30.09 in WNW 2.4 mph 4 mph 84% 0.00 in 0 W/m2
03:59 39.3 °F 34.8 °F 30.09 in WNW 0.9 mph 4 mph 84% 0.00 in 0 W/m2
04:04 39.5 °F 35 °F 30.09 in WNW 1.7 mph 3 mph 84% 0.00 in 0 W/m2
04:09 39.6 °F 35.1 °F 30.09 in WNW 0.5 mph 3 mph 84% 0.00 in 0 W/m2
04:14 39.7 °F 35.3 °F 30.09 in WNW 1.6 mph 3 mph 84.2% 0.00 in 0 W/m2
04:19 39.7 °F 35.6 °F 30.08 in WNW 0.8 mph 3 mph 85% 0.00 in 0 W/m2
04:24 39.9 °F 35.8 °F 30.08 in WNW 1.3 mph 3 mph 85% 0.00 in 0 W/m2
04:29 40.1 °F 36 °F 30.08 in WNW 1.6 mph 3 mph 85% 0.00 in 0 W/m2
04:34 40.2 °F 36.1 °F 30.08 in WNW 0.9 mph 3 mph 85% 0.00 in 0 W/m2
04:39 40.3 °F 36.1 °F 30.08 in WNW 0.2 mph 2 mph 85% 0.00 in 0 W/m2
04:44 40.3 °F 36.1 °F 30.08 in WNW 1 mph 3 mph 85% 0.00 in 0 W/m2
04:49 40.3 °F 36.1 °F 30.08 in WNW 0.2 mph 1 mph 85% 0.00 in 0 W/m2
04:54 40.3 °F 36.1 °F 30.08 in WNW 0.4 mph 2 mph 85% 0.00 in 0 W/m2
04:59 40.3 °F 36.1 °F 30.08 in Calm   2 mph 85% 0.00 in 0 W/m2
05:04 40.2 °F 36 °F 30.09 in Calm     85% 0.00 in 0 W/m2
05:09 40.1 °F 36 °F 30.09 in Calm     85% 0.00 in 0 W/m2
05:14 40.1 °F 36 °F 30.08 in Calm   1 mph 85% 0.00 in 0 W/m2
05:19 40.1 °F 36 °F 30.08 in Calm     85% 0.00 in 0 W/m2
05:24 39.9 °F 35.8 °F 30.08 in Calm     85% 0.00 in 0 W/m2
05:29 39.7 °F 35.6 °F 30.08 in WNW 0.2 mph 1 mph 85% 0.00 in 0 W/m2
05:34 39.6 °F 35.4 °F 30.08 in WNW 0.2 mph 1 mph 85% 0.00 in 0 W/m2
05:39 39.3 °F 35.3 °F 30.08 in WNW 0.8 mph 3 mph 85.4% 0.00 in 0 W/m2
05:44 39 °F 35.2 °F 30.08 in WNW 1.3 mph 3 mph 86% 0.00 in 0 W/m2
05:49 38.9 °F 35.1 °F 30.08 in WNW 1.8 mph 3 mph 86% 0.00 in 0 W/m2
05:54 38.8 °F 35 °F 30.08 in WNW 1.3 mph 3 mph 86% 0.00 in 0 W/m2
05:59 38.8 °F 35 °F 30.08 in WNW 1.1 mph 2 mph 86% 0.00 in 0 W/m2
06:04 38.7 °F 35.1 °F 30.08 in WNW 1.2 mph 2 mph 86.8% 0.00 in 0 W/m2
06:09 38.7 °F 35.1 °F 30.08 in WNW 0.6 mph 4 mph 87% 0.00 in 0 W/m2
06:14 38.7 °F 35.1 °F 30.08 in WNW 0.2 mph 3 mph 87% 0.00 in 5 W/m2
06:19 38.8 °F 35.2 °F 30.08 in Calm   1 mph 87% 0.00 in 9 W/m2
06:24 38.7 °F 35.1 °F 30.08 in Calm     87% 0.00 in 11 W/m2
06:29 38.6 °F 35 °F 30.08 in Calm   1 mph 87% 0.00 in 12 W/m2
06:34 38.5 °F 34.9 °F 30.08 in Calm     87% 0.00 in 14 W/m2
06:39 38.2 °F 34.6 °F 30.08 in Calm     87% 0.00 in 16 W/m2
06:44 38.1 °F 34.5 °F 30.08 in WNW 0.2 mph 1 mph 87% 0.00 in 18 W/m2
06:49 38.5 °F 34.9 °F 30.09 in Calm     87% 0.00 in 21 W/m2
06:54 38.7 °F 35.1 °F 30.09 in Calm     87% 0.00 in 23 W/m2
06:59 38.8 °F 35.2 °F 30.09 in WNW 0.2 mph 2 mph 87% 0.00 in 25 W/m2
07:04 38.7 °F 35.1 °F 30.09 in Calm   1 mph 87% 0.00 in 26 W/m2
07:09 38.7 °F 35.2 °F 30.09 in Calm     87.2% 0.00 in 51 W/m2
07:14 38.8 °F 35.2 °F 30.09 in WNW 1.6 mph 3 mph 87% 0.00 in 53 W/m2
07:19 39.4 °F 35.9 °F 30.09 in WNW 2.9 mph 5 mph 87.4% 0.00 in 35 W/m2
07:24 39.9 °F 36.6 °F 30.09 in West 1 mph 5 mph 87.8% 0.00 in 46 W/m2
07:29 40.5 °F 36.9 °F 30.09 in West 2 mph 6 mph 87% 0.00 in 70 W/m2
07:34 41 °F 37.4 °F 30.09 in West 5 mph 8 mph 87% 0.00 in 114 W/m2
07:39 41.6 °F 37.8 °F 30.09 in West 3 mph 7 mph 86.4% 0.00 in 160 W/m2
07:44 42.2 °F 38.2 °F 30.09 in West 4.1 mph 8 mph 85.8% 0.00 in 183 W/m2
07:48 42.6 °F 38.5 °F 30.08 in WSW 4 mph 8 mph 85% 0.00 in 183 W/m2
07:54 42.8 °F 38.4 °F 30.09 in WNW 4.2 mph 8 mph 84.2% 0.00 in 141 W/m2
07:59 43 °F 38.1 °F 30.09 in WNW 5.9 mph 15 mph 83% 0.00 in 165 W/m2
08:04 43.2 °F 38.1 °F 30.09 in West 5.1 mph 14 mph 82% 0.00 in 169 W/m2
08:09 43.3 °F 37.8 °F 30.09 in NW 6.6 mph 11 mph 80.4% 0.00 in 185 W/m2
08:14 43.5 °F 37.5 °F 30.09 in NW 7.8 mph 14 mph 79.2% 0.00 in 199 W/m2
08:19 43.8 °F 37.3 °F 30.09 in West 8.8 mph 16 mph 78% 0.00 in 221 W/m2
08:24 44.1 °F 37.4 °F 30.09 in West 4.6 mph 12 mph 77% 0.00 in 322 W/m2
08:29 44.2 °F 37.4 °F 30.09 in WNW 6 mph 14 mph 76.6% 0.00 in 202 W/m2
08:34 44.2 °F 37.2 °F 30.09 in WNW 7.3 mph 14 mph 76% 0.00 in 190 W/m2
08:39 44.2 °F 36.9 °F 30.09 in WNW 8.6 mph 15 mph 75% 0.00 in 186 W/m2
08:44 44.2 °F 36.6 °F 30.09 in NW 6.2 mph 11 mph 74.4% 0.00 in 183 W/m2
08:49 44.2 °F 36.5 °F 30.09 in WNW 5.9 mph 11 mph 74% 0.00 in 174 W/m2
08:54 44.2 °F 36.4 °F 30.09 in WNW 7 mph 17 mph 73.8% 0.00 in 262 W/m2
08:59 44.2 °F 36.1 °F 30.09 in WNW 6.8 mph 16 mph 73% 0.00 in 290 W/m2
09:04 44.7 °F 36.6 °F 30.09 in NW 6.4 mph 14 mph 73% 0.00 in 524 W/m2
09:09 45.3 °F 37.1 °F 30.08 in WNW 6 mph 12 mph 72.8% 0.00 in 589 W/m2
09:14 45.7 °F 37.2 °F 30.08 in WNW 6.4 mph 15 mph 72% 0.00 in 417 W/m2
09:19 45.9 °F 37.3 °F 30.09 in NW 7 mph 15 mph 71.8% 0.00 in 345 W/m2
09:24 45.8 °F 37 °F 30.09 in WNW 4.7 mph 13 mph 71% 0.00 in 295 W/m2
09:29 45.8 °F 36.9 °F 30.08 in WNW 6.6 mph 13 mph 71% 0.00 in 237 W/m2
09:34 45.7 °F 37.2 °F 30.09 in West 7 mph 13 mph 72% 0.00 in 214 W/m2
09:39 45.5 °F 36.8 °F 30.08 in West 5.2 mph 15 mph 71.6% 0.00 in 195 W/m2
09:44 45.6 °F 37 °F 30.08 in West 5.4 mph 13 mph 71.8% 0.00 in 236 W/m2
09:49 45.3 °F 36.5 °F 30.08 in WNW 7.2 mph 13 mph 71% 0.00 in 287 W/m2
09:54 45.5 °F 36.7 °F 30.08 in WNW 4.4 mph 11 mph 71% 0.00 in 366 W/m2
09:59 45.7 °F 36.9 °F 30.08 in WNW 5.8 mph 15 mph 71% 0.00 in 355 W/m2
10:04 45.8 °F 36.6 °F 30.08 in WNW 10.2 mph 17 mph 70% 0.00 in 394 W/m2
10:09 46.1 °F 36.9 °F 30.08 in WNW 6.6 mph 14 mph 70% 0.00 in 652 W/m2
10:14 46 °F 36.5 °F 30.08 in WNW 7.1 mph 16 mph 69% 0.00 in 359 W/m2
10:19 46.2 °F 36.7 °F 30.07 in WNW 8.8 mph 18 mph 69% 0.00 in 519 W/m2
10:24 46.1 °F 36.6 °F 30.08 in WNW 9.4 mph 19 mph 69% 0.00 in 304 W/m2
10:29 46.3 °F 36.7 °F 30.08 in NW 5 mph 12 mph 68.6% 0.00 in 378 W/m2
10:34 46.6 °F 36.8 °F 30.08 in WNW 4 mph 11 mph 68.6% 0.00 in 378 W/m2
10:39 46.8 °F 36.9 °F 30.08 in WNW 8.8 mph 13 mph 68.4% 0.00 in 404 W/m2
10:44 47 °F 36.9 °F 30.08 in WNW 8 mph 12 mph 68% 0.00 in 844 W/m2
10:49 47.8 °F 37.6 °F 30.08 in WNW 5.6 mph 16 mph 67.6% 0.00 in 788 W/m2
10:54 48.2 °F 37.4 °F 30.07 in West 7.9 mph 14 mph 66.2% 0.00 in 926 W/m2
10:59 47.8 °F 36.9 °F 30.07 in WNW 7.6 mph 15 mph 65.8% 0.00 in 390 W/m2
11:04 47.7 °F 36.6 °F 30.07 in WNW 6.2 mph 15 mph 65.2% 0.00 in 489 W/m2
11:09 47.1 °F 36.5 °F 30.07 in West 8.4 mph 15 mph 66.6% 0.00 in 366 W/m2
11:14 46.9 °F 36.9 °F 30.07 in WNW 7.6 mph 14 mph 68% 0.00 in 246 W/m2
11:19 46.9 °F 37.1 °F 30.07 in WNW 7.2 mph 12 mph 68.6% 0.00 in 343 W/m2
11:24 46.9 °F 37.2 °F 30.07 in WNW 5.6 mph 14 mph 69% 0.00 in 301 W/m2
11:29 47.1 °F 37.4 °F 30.07 in NW 6.8 mph 13 mph 69% 0.00 in 232 W/m2
11:34 47.1 °F 37.1 °F 30.07 in NW 7 mph 13 mph 68.2% 0.00 in 243 W/m2
11:39 47.1 °F 36.8 °F 30.06 in NNW 5.8 mph 10 mph 67.4% 0.00 in 338 W/m2
11:44 47.5 °F 37 °F 30.06 in NNW 6.7 mph 14 mph 67% 0.00 in 302 W/m2
11:49 47.7 °F 37.2 °F 30.06 in WNW 5.3 mph 9 mph 67% 0.00 in 353 W/m2
11:54 48 °F 37.3 °F 30.06 in NW 5.2 mph 12 mph 66.4% 0.00 in 413 W/m2
11:59 47.9 °F 36.9 °F 30.06 in NW 7 mph 17 mph 65.4% 0.00 in 425 W/m2
12:04 47.9 °F 36.8 °F 30.06 in NW 5.2 mph 13 mph 65% 0.00 in 796 W/m2
12:09 48.7 °F 37.3 °F 30.06 in NNW 8.1 mph 14 mph 64.6% 0.00 in 796 W/m2
12:14 48.8 °F 37.1 °F 30.06 in WNW 9.2 mph 14 mph 64% 0.00 in 304 W/m2
12:19 48.6 °F 37 °F 30.06 in WNW 8 mph 12 mph 64.2% 0.00 in 881 W/m2
12:24 49 °F 36.9 °F 30.06 in WNW 5.7 mph 14 mph 62.8% 0.00 in 914 W/m2
12:29 49.5 °F 36.8 °F 30.06 in NW 7.2 mph 13 mph 61.6% 0.00 in 327 W/m2
12:34 49.5 °F 36 °F 30.06 in WNW 10.5 mph 18 mph 59.5% 0.00 in 796 W/m2
12:39 49.6 °F 35.5 °F 30.05 in NW 7.4 mph 18 mph 58.2% 0.00 in 758 W/m2
12:44 50.2 °F 36.3 °F 30.05 in NW 10.4 mph 16 mph 59% 0.00 in 912 W/m2
12:49 50.3 °F 36.4 °F 30.05 in WNW 4.4 mph 14 mph 59% 0.00 in 352 W/m2
12:54 50.2 °F 36.7 °F 30.05 in NW 5.3 mph 10 mph 59.8% 0.00 in 255 W/m2
12:59 49.8 °F 36.6 °F 30.05 in NW 5.1 mph 11 mph 60.2% 0.00 in 264 W/m2
13:04 49.7 °F 36.4 °F 30.05 in NW 3.3 mph 11 mph 60% 0.00 in 272 W/m2
13:09 49.9 °F 36.9 °F 30.05 in NW 7.2 mph 12 mph 60.8% 0.00 in 302 W/m2
13:14 49.6 °F 37.1 °F 30.05 in WNW 5 mph 10 mph 61.8% 0.00 in 216 W/m2
13:19 49.8 °F 37.4 °F 30.05 in WNW 4.6 mph 9 mph 62% 0.00 in 362 W/m2
13:24 49.7 °F 37.3 °F 30.05 in West 4.3 mph 12 mph 62% 0.00 in 362 W/m2
13:29 49.4 °F 37.2 °F 30.05 in West 9.2 mph 15 mph 62.6% 0.00 in 207 W/m2
13:34 49.2 °F 37.1 °F 30.05 in West 7.4 mph 12 mph 63% 0.00 in 178 W/m2
13:39 49.3 °F 37.6 °F 30.05 in WNW 6 mph 11 mph 64% 0.00 in 332 W/m2
13:44 49.5 °F 37.6 °F 30.06 in West 7.2 mph 13 mph 63.4% 0.00 in 403 W/m2
13:49 50.1 °F 38.1 °F 30.06 in NW 5 mph 11 mph 63.2% 0.00 in 339 W/m2
13:54 50.1 °F 38 °F 30.05 in NW 6.8 mph 11 mph 63% 0.00 in 967 W/m2
13:59 51.1 °F 38.2 °F 30.05 in WNW 7.6 mph 14 mph 61.2% 0.00 in 1005 W/m2
14:04 51 °F 37.6 °F 30.05 in WNW 7 mph 14 mph 59.8% 0.00 in 292 W/m2
14:09 50.3 °F 37.1 °F 30.05 in NW 6.1 mph 14 mph 60.4% 0.00 in 206 W/m2
14:14 50.4 °F 37.5 °F 30.05 in NW 6.4 mph 11 mph 61.4% 0.00 in 251 W/m2
14:19 50.4 °F 37.1 °F 30.05 in North 4.7 mph 13 mph 60.2% 0.00 in 313 W/m2
14:24 50.3 °F 37 °F 30.05 in NW 8.2 mph 14 mph 60.2% 0.00 in 320 W/m2
14:29 50.4 °F 36.9 °F 30.05 in NW 8 mph 15 mph 59.8% 0.00 in 315 W/m2
14:34 50.2 °F 36.8 °F 30.05 in NW 6.6 mph 15 mph 59.8% 0.00 in 239 W/m2
14:39 49.8 °F 36.9 °F 30.05 in WNW 8 mph 17 mph 60.8% 0.00 in 209 W/m2
14:44 49.3 °F 38 °F 30.05 in West 9.8 mph 14 mph 65% 0.00 in 304 W/m2
14:49 48.9 °F 38.7 °F 30.05 in West 7.2 mph 16 mph 67.6% 0.00 in 496 W/m2
14:54 48.7 °F 38.9 °F 30.05 in WNW 6.4 mph 16 mph 68.6% 0.00 in 628 W/m2
14:59 49 °F 39.3 °F 30.05 in West 7 mph 13 mph 69% 0.00 in 366 W/m2
15:04 49.3 °F 39.2 °F 30.05 in West 7.6 mph 15 mph 68.2% 0.00 in 306 W/m2
15:09 49.2 °F 39.1 °F 30.05 in West 7 mph 13 mph 68% 0.00 in 213 W/m2
15:14 49 °F 38.9 °F 30.05 in WNW 8.4 mph 14 mph 68% 0.00 in 188 W/m2
15:19 49.1 °F 39.1 °F 30.05 in WNW 6.8 mph 13 mph 68% 0.00 in 204 W/m2
15:24 48.8 °F 38.6 °F 30.05 in WNW 8 mph 14 mph 67.6% 0.00 in 216 W/m2
15:29 48.4 °F 38.3 °F 30.05 in WNW 8.6 mph 15 mph 68% 0.00 in 250 W/m2
15:34 48.5 °F 38.2 °F 30.04 in NW 9.6 mph 12 mph 67.6% 0.00 in 301 W/m2
15:39 48.8 °F 38.3 °F 30.04 in NW 6.6 mph 12 mph 67% 0.00 in 357 W/m2
15:44 49.2 °F 38.5 °F 30.04 in NW 6.5 mph 13 mph 66.2% 0.00 in 360 W/m2
15:49 50.1 °F 38.7 °F 30.04 in NW 6.2 mph 14 mph 64.8% 0.00 in 700 W/m2
15:54 50.5 °F 38.6 °F 30.04 in WNW 7.3 mph 12 mph 63.2% 0.00 in 700 W/m2
15:59 50.4 °F 38.1 °F 30.04 in WNW 6.6 mph 12 mph 62.6% 0.00 in 209 W/m2
16:04 50 °F 37.9 °F 30.04 in WNW 5.5 mph 14 mph 62.8% 0.00 in 218 W/m2
16:09 49.6 °F 37.6 °F 30.04 in NW 6.2 mph 15 mph 63% 0.00 in 163 W/m2
16:14 49.5 °F 37.8 °F 30.04 in WNW 5.6 mph 11 mph 64% 0.00 in 176 W/m2
16:19 50.1 °F 38.6 °F 30.03 in NW 7.6 mph 16 mph 64.4% 0.00 in 599 W/m2
16:24 50.1 °F 38.4 °F 30.04 in WNW 8.2 mph 16 mph 64% 0.00 in 113 W/m2
16:29 50 °F 38.4 °F 30.03 in WNW 8 mph 10 mph 64.4% 0.00 in 615 W/m2
16:34 50.3 °F 38.7 °F 30.03 in West 6.4 mph 13 mph 64.4% 0.00 in 378 W/m2
16:39 50 °F 38.6 °F 30.03 in WNW 6.2 mph 13 mph 64.8% 0.00 in 144 W/m2
16:44 49.4 °F 38.2 °F 30.03 in West 5.5 mph 13 mph 65.2% 0.00 in 90 W/m2
16:49 49.3 °F 38.6 °F 30.03 in WNW 3.7 mph 9 mph 66.4% 0.00 in 86 W/m2
16:54 49 °F 38.7 °F 30.03 in NW 6.2 mph 10 mph 67.2% 0.00 in 128 W/m2
16:59 48.8 °F 38.8 °F 30.03 in WNW 8 mph 14 mph 68.2% 0.00 in 127 W/m2
17:04 48.5 °F 38.9 °F 30.04 in NW 4.9 mph 11 mph 69.6% 0.00 in 100 W/m2
17:09 48.2 °F 39 °F 30.04 in NNW 4.5 mph 10 mph 70.6% 0.00 in 60 W/m2
17:14 47.6 °F 38.7 °F 30.04 in WNW 5.7 mph 12 mph 71.2% 0.00 in 60 W/m2
17:19 47.3 °F 38.7 °F 30.04 in NW 5.7 mph 11 mph 72.4% 0.00 in 69 W/m2
17:24 46.9 °F 38.9 °F 30.04 in NNW 4.4 mph 9 mph 73.6% 0.00 in 97 W/m2
17:29 46.8 °F 38.9 °F 30.03 in NW 3.7 mph 8 mph 74% 0.00 in 158 W/m2
17:34 47 °F 39.1 °F 30.03 in WNW 2.9 mph 5 mph 74% 0.00 in 206 W/m2
17:39 47.1 °F 39.2 °F 30.03 in WNW 2.9 mph 8 mph 74% 0.00 in 206 W/m2
17:44 47.2 °F 39.3 °F 30.03 in WNW 2.5 mph 3 mph 73.8% 0.00 in 206 W/m2
17:49 48 °F 39.7 °F 30.03 in WNW 4.9 mph 8 mph 73% 0.00 in 218 W/m2
17:54 48.2 °F 39.9 °F 30.04 in WNW 3.7 mph 7 mph 73% 0.00 in 237 W/m2
17:59 48.4 °F 39.7 °F 30.04 in WNW 4.3 mph 9 mph 72% 0.00 in 135 W/m2
18:04 48.3 °F 39.6 °F 30.04 in WNW 4.1 mph 7 mph 72% 0.00 in 76 W/m2
18:09 48.4 °F 39.7 °F 30.04 in WNW 3.6 mph 10 mph 72% 0.00 in 86 W/m2
18:14 48.3 °F 39.6 °F 30.04 in WNW 6.6 mph 12 mph 72% 0.00 in 116 W/m2
18:19 48.1 °F 39.5 °F 30.04 in West 4 mph 9 mph 72% 0.00 in 116 W/m2
18:24 47.9 °F 39 °F 30.04 in WNW 4.3 mph 10 mph 71.2% 0.00 in 141 W/m2
18:29 47.9 °F 38.9 °F 30.04 in WNW 2.6 mph 8 mph 71% 0.00 in 146 W/m2
18:34 48.1 °F 39.1 °F 30.04 in WNW 3.9 mph 7 mph 71% 0.00 in 142 W/m2
18:39 48.2 °F 38.8 °F 30.04 in WNW 3.8 mph 10 mph 70% 0.00 in 121 W/m2
18:44 48.3 °F 38.9 °F 30.04 in WNW 4.5 mph 8 mph 70% 0.00 in 113 W/m2
18:49 48.3 °F 38.9 °F 30.04 in NW 4.5 mph 9 mph 70% 0.00 in 113 W/m2
18:54 48.4 °F 39 °F 30.04 in NW 3.1 mph 7 mph 70% 0.00 in 104 W/m2
18:59 48.4 °F 39 °F 30.04 in WNW 4.8 mph 9 mph 70% 0.00 in 100 W/m2
19:04 48.4 °F 39 °F 30.04 in WNW 4.1 mph 9 mph 70% 0.00 in 69 W/m2
19:09 48.4 °F 39.1 °F 30.04 in NW 6.2 mph 11 mph 70.2% 0.00 in 70 W/m2
19:14 48.3 °F 39.2 °F 30.04 in NW 6.6 mph 11 mph 70.8% 0.00 in 69 W/m2
19:19 48.4 °F 39.4 °F 30.04 in WNW 4.4 mph 10 mph 71% 0.00 in 58 W/m2
19:24 48.2 °F 39 °F 30.04 in NNW 6.4 mph 14 mph 70.4% 0.00 in 44 W/m2
19:29 48 °F 38.7 °F 30.04 in NNW 4.1 mph 9 mph 70% 0.00 in 39 W/m2
19:34 48 °F 38.7 °F 30.04 in WNW 3.2 mph 8 mph 70% 0.00 in 25 W/m2
19:39 47.8 °F 38.3 °F 30.04 in NNW 6.2 mph 11 mph 69.6% 0.00 in 18 W/m2
19:44 47.7 °F 38.2 °F 30.05 in NNW 3.9 mph 7 mph 69.8% 0.00 in 12 W/m2
19:49 47.6 °F 38.2 °F 30.05 in WNW 3.2 mph 7 mph 70% 0.00 in 9 W/m2
19:54 47.3 °F 37.9 °F 30.05 in NW 4.4 mph 8 mph 70% 0.00 in 9 W/m2
19:59 47.1 °F 38.1 °F 30.05 in NW 4.3 mph 8 mph 71% 0.00 in 7 W/m2
20:04 47.1 °F 38.1 °F 30.05 in NW 4.8 mph 7 mph 71% 0.00 in 5 W/m2
20:09 46.9 °F 38.3 °F 30.05 in NW 3.2 mph 6 mph 71.8% 0.00 in 0 W/m2
20:14 46.8 °F 38.3 °F 30.05 in NW 3.7 mph 6 mph 72.2% 0.00 in 0 W/m2
20:19 46.6 °F 38.4 °F 30.06 in NNW 2.7 mph 5 mph 72.8% 0.00 in 0 W/m2
20:24 46.3 °F 38.2 °F 30.06 in NNW 2.7 mph 5 mph 73% 0.00 in 0 W/m2
20:29 46 °F 38.3 °F 30.06 in NW 2.1 mph 4 mph 73.8% 0.00 in 0 W/m2
20:34 45.9 °F 38.1 °F 30.06 in NW 2.4 mph 4 mph 74% 0.00 in 0 W/m2
20:39 45.7 °F 38.2 °F 30.06 in NW 2.3 mph 6 mph 74.8% 0.00 in 0 W/m2
20:44 45.4 °F 38 °F 30.07 in WNW 2.6 mph 6 mph 75% 0.00 in 0 W/m2
20:49 45.3 °F 37.9 °F 30.07 in NW 2.6 mph 5 mph 75% 0.00 in 0 W/m2
20:54 45.1 °F 37.8 °F 30.07 in NW 2 mph 4 mph 75% 0.00 in 0 W/m2
20:59 45.1 °F 37.9 °F 30.07 in NW 1.6 mph 5 mph 76% 0.00 in 0 W/m2
21:04 45 °F 37.9 °F 30.08 in NW 2.2 mph 4 mph 76% 0.00 in 0 W/m2
21:09 44.9 °F 37.9 °F 30.08 in NW 2.2 mph 4 mph 76% 0.00 in 0 W/m2
21:14 44.8 °F 37.8 °F 30.08 in NW 0.7 mph 4 mph 76% 0.00 in 0 W/m2
21:19 44.5 °F 37.5 °F 30.09 in NW 1 mph 3 mph 76% 0.00 in 0 W/m2
21:24 44.4 °F 37.4 °F 30.09 in NW 1.2 mph 4 mph 76.2% 0.00 in 0 W/m2
21:29 44.2 °F 37.6 °F 30.09 in NW 2.4 mph 4 mph 77% 0.00 in 0 W/m2
21:34 44.2 °F 37.6 °F 30.09 in NW 1.7 mph 4 mph 77% 0.00 in 0 W/m2
21:39 44.1 °F 37.4 °F 30.09 in NW 2.4 mph 5 mph 77% 0.00 in 0 W/m2
21:44 44.1 °F 37.4 °F 30.10 in NW 2.8 mph 6 mph 77% 0.00 in 0 W/m2
21:49 44.1 °F 37.4 °F 30.10 in NNW 2.4 mph 6 mph 77% 0.00 in 0 W/m2
21:54 44 °F 37.3 °F 30.10 in NW 2.1 mph 5 mph 77% 0.00 in 0 W/m2
21:59 43.9 °F 37.2 °F 30.10 in NW 1.7 mph 5 mph 77% 0.00 in 0 W/m2
22:04 43.9 °F 37.2 °F 30.10 in NNW 3.6 mph 7 mph 77% 0.00 in 0 W/m2
22:09 43.7 °F 37 °F 30.11 in NNE 1.8 mph 7 mph 77% 0.00 in 0 W/m2
22:14 43.5 °F 36.9 °F 30.11 in NNE 2.4 mph 5 mph 77% 0.00 in 0 W/m2
22:19 43.5 °F 36.9 °F 30.11 in NNW 2 mph 5 mph 77% 0.00 in 0 W/m2
22:24 43.4 °F 36.4 °F 30.11 in NNW 2.6 mph 5 mph 76% 0.00 in 0 W/m2
22:29 43.3 °F 36.3 °F 30.11 in NNW 2.2 mph 5 mph 76% 0.00 in 0 W/m2
22:34 43.3 °F 36.3 °F 30.11 in NNW 1.6 mph 5 mph 76% 0.00 in 0 W/m2
22:39 43.2 °F 36 °F 30.11 in NNW 2.4 mph 5 mph 75.6% 0.00 in 0 W/m2
22:44 43.2 °F 35.8 °F 30.11 in NW 2.7 mph 5 mph 75% 0.00 in 0 W/m2
22:49 43 °F 35.6 °F 30.11 in NW 1.5 mph 5 mph 75% 0.00 in 0 W/m2
22:54 42.9 °F 35.5 °F 30.12 in NNW 1.2 mph 4 mph 75% 0.00 in 0 W/m2
22:59 42.8 °F 35.6 °F 30.12 in NNW 0.9 mph 3 mph 75.5% 0.00 in 0 W/m2
23:04 42.5 °F 35.5 °F 30.12 in NNW 0.4 mph 2 mph 75.8% 0.00 in 0 W/m2
23:09 42.4 °F 35.3 °F 30.12 in NNW 0.5 mph 2 mph 76% 0.00 in 0 W/m2
23:14 42.3 °F 35.2 °F 30.12 in NNW 2.7 mph 6 mph 76% 0.00 in 0 W/m2
23:19 42.1 °F 35.1 °F 30.12 in North 3.8 mph 4 mph 76% 0.00 in 0 W/m2
23:24 42.2 °F 35.1 °F 30.13 in North 3.8 mph 6 mph 76% 0.00 in 0 W/m2
23:29 42.3 °F 35.3 °F 30.13 in North 3.8 mph 8 mph 76% 0.00 in 0 W/m2
23:34 42.4 °F 35.4 °F 30.13 in NW 2.9 mph 7 mph 76% 0.00 in 0 W/m2
23:39 42.3 °F 35.3 °F 30.13 in NNW 4 mph 8 mph 76% 0.00 in 0 W/m2
23:44 42.3 °F 35.2 °F 30.14 in NNW 2.2 mph 4 mph 76% 0.00 in 0 W/m2
23:49 42.3 °F 35.2 °F 30.14 in NNW 3.2 mph 7 mph 76% 0.00 in 0 W/m2
23:54 42.2 °F 35.2 °F 30.14 in NNW 2.3 mph 6 mph 76% 0.00 in 0 W/m2
23:59 42 °F 35 °F 30.14 in NNW 1.4 mph 3 mph 76% 0.00 in 0 W/m2
Bath Spa Weather
Compliments of Weather Underground - 2 mb